Time;durP1;ratioP1;P1;durP2;ratioP2;P2;SDS_P1;SDS_P2;PMS_P1;PMS_P2;Temp;Humidity;BMP_temperature;BMP_pressure;BME280_temperature;BME280_humidity;BME280_pressure;Samples;Min_cycle;Max_cycle;Signal;HPM_P1;HPM_P2
2021/12/29 00:00:27;;;;;;;11.30;8.35;;;;;;;4.11;49.83;101436.73;1765985;80;21513;-51
2021/12/29 00:02:55;;;;;;;10.72;8.40;;;;;;;4.12;49.84;101438.48;1780648;80;21522;-51
2021/12/29 00:05:23;;;;;;;11.97;8.63;;;;;;;4.11;49.72;101442.75;1759019;80;21029;-51
2021/12/29 00:07:50;;;;;;;11.33;8.18;;;;;;;4.09;49.75;101440.98;1765443;80;21499;-51
2021/12/29 00:10:19;;;;;;;11.40;7.80;;;;;;;4.09;49.80;101438.41;1755442;80;21007;-51
2021/12/29 00:12:50;;;;;;;11.88;8.58;;;;;;;4.09;49.82;101432.84;1762898;80;21015;-51
2021/12/29 00:15:16;;;;;;;14.53;9.13;;;;;;;4.08;49.55;101430.27;1755300;80;21047;-51
2021/12/29 00:17:44;;;;;;;12.25;8.75;;;;;;;4.06;49.50;101425.48;1760016;80;21018;-51
2021/12/29 00:20:13;;;;;;;11.12;8.53;;;;;;;4.05;49.75;101432.36;1756621;80;20977;-51
2021/12/29 00:22:40;;;;;;;12.63;8.73;;;;;;;4.07;49.77;101431.96;1752051;80;21053;-51
2021/12/29 00:25:07;;;;;;;14.65;9.85;;;;;;;4.06;49.68;101433.20;1754234;80;21000;-51
2021/12/29 00:27:35;;;;;;;15.13;10.80;;;;;;;4.08;49.67;101437.98;1764715;80;21002;-52
2021/12/29 00:30:04;;;;;;;13.03;10.10;;;;;;;4.09;49.73;101443.56;1761822;80;21069;-51
2021/12/29 00:32:49;;;;;;;12.43;10.05;;;;;;;4.09;49.80;101439.70;1763493;81;21120;-51
2021/12/29 00:35:38;;;;;;;12.05;10.32;;;;;;;4.11;49.76;101434.16;1764836;80;21042;-51
2021/12/29 00:38:11;;;;;;;12.05;9.78;;;;;;;4.12;49.52;101433.33;1704840;84;21096;-51
2021/12/29 00:40:56;;;;;;;12.50;9.73;;;;;;;4.08;49.48;101441.41;1699372;84;21071;-51
2021/12/29 00:43:41;;;;;;;13.62;10.72;;;;;;;4.08;49.58;101447.00;1696394;83;21082;-51
2021/12/29 00:46:12;;;;;;;15.58;10.90;;;;;;;4.09;49.66;101439.29;1705496;84;21533;-51
2021/12/29 00:48:41;;;;;;;14.03;10.65;;;;;;;4.09;49.52;101431.97;1690746;84;21104;-51
2021/12/29 00:51:08;;;;;;;14.30;10.58;;;;;;;4.09;49.53;101444.85;1677121;84;21011;-51
2021/12/29 00:53:35;;;;;;;13.90;10.53;;;;;;;4.09;49.54;101439.70;1681783;84;21034;-51
2021/12/29 00:56:02;;;;;;;13.22;10.25;;;;;;;4.09;49.55;101439.70;1702600;83;21069;-51
2021/12/29 00:58:29;;;;;;;12.85;10.78;;;;;;;4.10;49.58;101440.16;1687261;84;21089;-51
2021/12/29 01:00:57;;;;;;;14.93;10.13;;;;;;;4.10;49.62;101441.45;1687561;83;21451;-51
2021/12/29 01:03:23;;;;;;;13.15;10.10;;;;;;;4.09;49.55;101438.41;1679474;84;21257;-51
2021/12/29 01:05:51;;;;;;;11.45;8.83;;;;;;;4.09;49.48;101438.41;1698976;84;21061;-51
2021/12/29 01:08:18;;;;;;;12.05;9.38;;;;;;;4.06;49.33;101436.66;1689363;84;21106;-51
2021/12/29 01:10:44;;;;;;;10.45;8.88;;;;;;;4.04;49.42;101443.90;1681228;84;21083;-51
2021/12/29 01:13:14;;;;;;;14.87;10.72;;;;;;;4.04;49.34;101442.20;1692217;83;21065;-51
2021/12/29 01:15:58;;;;;;;15.23;11.28;;;;;;;4.06;49.42;101439.64;1735482;80;21006;-52
2021/12/29 01:18:16;;;;;;;12.78;9.73;;;;;;;4.04;49.44;101436.17;1753528;80;20995;-51
2021/12/29 01:20:43;;;;;;;12.58;9.60;;;;;;;4.03;49.34;101444.76;1750923;80;20989;-51
2021/12/29 01:23:09;;;;;;;10.90;8.78;;;;;;;4.04;49.23;101437.46;1768789;80;21057;-51
2021/12/29 01:25:35;;;;;;;13.13;9.45;;;;;;;4.03;49.37;101431.88;1756123;80;20990;-51
2021/12/29 01:28:03;;;;;;;17.25;12.05;;;;;;;4.03;49.15;101430.59;1768852;80;21069;-51
2021/12/29 01:30:30;;;;;;;14.45;10.93;;;;;;;3.97;49.19;101430.50;1758967;80;21043;-51
2021/12/29 01:33:00;;;;;;;15.95;11.28;;;;;;;3.93;49.23;101439.02;1754866;80;21026;-52
2021/12/29 01:35:26;;;;;;;13.35;10.35;;;;;;;3.90;49.42;101444.11;1758375;80;20991;-51
2021/12/29 01:37:52;;;;;;;14.33;10.93;;;;;;;3.88;49.56;101452.23;1753304;80;21022;-51
2021/12/29 01:40:19;;;;;;;13.18;10.53;;;;;;;3.89;49.67;101441.11;1772991;80;21543;-51
2021/12/29 01:42:45;;;;;;;19.32;12.18;;;;;;;3.89;49.68;101442.39;1759538;80;21160;-51
2021/12/29 01:45:12;;;;;;;16.35;12.10;;;;;;;3.84;49.47;101430.73;1768927;80;20999;-51
2021/12/29 01:47:39;;;;;;;16.55;12.50;;;;;;;3.79;49.39;101418.63;1759543;80;21065;-51
2021/12/29 01:50:08;;;;;;;18.52;11.83;;;;;;;3.71;49.52;101412.50;1754701;81;21474;-51
2021/12/29 01:52:38;;;;;;;17.15;12.60;;;;;;;3.59;49.54;101419.98;1763143;80;20995;-51
2021/12/29 01:55:08;;;;;;;18.75;12.78;;;;;;;3.45;49.86;101426.61;1745537;81;21313;-51
2021/12/29 01:57:34;;;;;;;18.67;12.70;;;;;;;3.43;50.25;101427.00;1696493;83;21101;-51
2021/12/29 02:00:02;;;;;;;17.55;12.78;;;;;;;3.42;50.24;101429.98;1694644;83;21066;-51
2021/12/29 02:02:32;;;;;;;18.73;13.00;;;;;;;3.38;50.33;101438.93;1676375;83;21155;-51
2021/12/29 02:04:58;;;;;;;17.10;12.15;;;;;;;3.38;50.42;101443.63;1683551;83;21047;-51
2021/12/29 02:07:26;;;;;;;16.00;12.47;;;;;;;3.43;50.53;101447.58;1702295;83;21090;-51
2021/12/29 02:09:54;;;;;;;17.17;12.53;;;;;;;3.49;50.49;101445.11;1701456;83;21518;-51
2021/12/29 02:12:20;;;;;;;17.98;13.43;;;;;;;3.53;50.47;101441.75;1681461;84;21053;-51
2021/12/29 02:14:47;;;;;;;16.37;12.98;;;;;;;3.57;50.47;101443.53;1687029;83;21111;-51
2021/12/29 02:17:13;;;;;;;14.55;12.07;;;;;;;3.60;50.35;101447.47;1684593;83;21058;-52
2021/12/29 02:19:46;;;;;;;15.98;12.10;;;;;;;3.63;50.23;101451.36;1638039;86;21109;-51
2021/12/29 02:22:23;;;;;;;15.95;12.40;;;;;;;3.65;50.07;101457.41;1672629;83;21208;-51
2021/12/29 02:24:43;;;;;;;17.27;11.85;;;;;;;3.67;50.00;101453.18;1679509;83;21002;-51
2021/12/29 02:27:12;;;;;;;17.70;12.55;;;;;;;3.68;49.91;101453.20;1698164;83;21612;-51
2021/12/29 02:29:40;;;;;;;15.90;11.63;;;;;;;3.70;49.87;101450.64;1690454;83;21054;-51
2021/12/29 02:32:07;;;;;;;15.75;11.45;;;;;;;3.69;49.65;101451.50;1686966;83;21588;-51
2021/12/29 02:34:34;;;;;;;14.87;11.88;;;;;;;3.71;49.79;101453.67;1690556;83;21601;-51
2021/12/29 02:37:03;;;;;;;14.83;11.10;;;;;;;3.70;49.81;101451.52;1686807;83;21040;-51
2021/12/29 02:39:36;;;;;;;18.00;12.30;;;;;;;3.72;49.80;101454.11;1693325;83;21031;-51
2021/12/29 02:42:04;;;;;;;15.28;11.60;;;;;;;3.73;49.75;101452.00;1678895;83;21079;-51
2021/12/29 02:44:38;;;;;;;15.65;11.75;;;;;;;3.74;49.72;101447.28;1707016;83;21038;-51
2021/12/29 02:46:59;;;;;;;16.02;11.57;;;;;;;3.75;49.64;101442.59;1700627;83;21637;-52
2021/12/29 02:49:26;;;;;;;16.97;11.63;;;;;;;3.74;49.59;101443.00;1632799;86;21509;-51
2021/12/29 02:51:53;;;;;;;15.60;12.55;;;;;;;3.74;49.57;101439.55;1703663;83;21481;-51
2021/12/29 02:54:21;;;;;;;16.17;11.33;;;;;;;3.75;49.68;101437.45;1687197;83;21029;-51
2021/12/29 02:56:49;;;;;;;16.37;12.18;;;;;;;3.74;49.76;101435.28;1666887;83;21183;-51
2021/12/29 02:59:16;;;;;;;15.08;11.28;;;;;;;3.76;49.81;101430.16;1687086;83;21074;-51
2021/12/29 03:01:43;;;;;;;15.05;11.00;;;;;;;3.75;49.88;101425.41;1747188;80;21070;-51
2021/12/29 03:04:11;;;;;;;16.45;12.20;;;;;;;3.73;49.64;101424.97;1759961;80;21033;-51
2021/12/29 03:06:38;;;;;;;16.65;12.15;;;;;;;3.70;49.54;101424.91;1760989;80;21002;-50
2021/12/29 03:09:07;;;;;;;17.42;12.00;;;;;;;3.65;49.42;101432.55;1750123;81;21063;-51
2021/12/29 03:11:34;;;;;;;16.75;12.43;;;;;;;3.62;49.73;101432.51;1750462;80;21513;-51
2021/12/29 03:14:00;;;;;;;18.55;12.63;;;;;;;3.64;49.79;101435.09;1756565;80;21533;-52
2021/12/29 03:16:28;;;;;;;17.15;12.80;;;;;;;3.65;49.80;101439.39;1761771;80;21013;-51
2021/12/29 03:18:54;;;;;;;16.15;12.15;;;;;;;3.68;49.79;101444.60;1756553;80;20998;-51
2021/12/29 03:21:21;;;;;;;14.68;11.57;;;;;;;3.71;49.85;101446.80;1753999;80;21031;-51
2021/12/29 03:23:49;;;;;;;15.83;12.58;;;;;;;3.76;49.92;101451.62;1747069;81;21013;-51
2021/12/29 03:26:16;;;;;;;16.25;11.73;;;;;;;3.80;49.88;101455.09;1749021;80;21069;-51
2021/12/29 03:28:43;;;;;;;14.25;11.73;;;;;;;3.83;49.65;101458.58;1745763;80;21002;-51
2021/12/29 03:31:14;;;;;;;13.93;11.38;;;;;;;3.86;49.54;101453.91;1747593;80;21557;-51
2021/12/29 03:33:38;;;;;;;14.60;11.60;;;;;;;3.87;49.40;101453.96;1758746;80;21033;-51
2021/12/29 03:36:05;;;;;;;14.60;11.63;;;;;;;3.88;49.39;101453.52;1780150;80;21067;-51
2021/12/29 03:38:35;;;;;;;15.03;11.22;;;;;;;3.90;49.34;101451.83;1759869;80;21105;-51
2021/12/29 03:41:07;;;;;;;14.55;11.15;;;;;;;3.91;49.24;101449.30;1777796;80;21018;-51
2021/12/29 03:43:33;;;;;;;15.00;12.10;;;;;;;3.92;49.40;101451.44;1752052;80;20995;-51
2021/12/29 03:46:01;;;;;;;15.70;12.53;;;;;;;3.93;49.31;101449.32;1759374;81;21050;-51
2021/12/29 03:48:28;;;;;;;19.17;12.20;;;;;;;3.94;49.32;101451.03;1755242;80;21046;-51
2021/12/29 03:50:56;;;;;;;16.15;12.13;;;;;;;3.95;49.29;101455.36;1774316;80;21026;-51
2021/12/29 03:53:23;;;;;;;15.80;11.50;;;;;;;3.96;49.44;101459.66;1772781;80;21065;-53
2021/12/29 03:55:50;;;;;;;14.07;11.18;;;;;;;3.97;49.37;101462.69;1749563;80;20998;-51
2021/12/29 03:58:19;;;;;;;16.10;12.58;;;;;;;3.98;49.54;101466.98;1767640;80;21042;-51
2021/12/29 04:00:48;;;;;;;15.75;11.75;;;;;;;3.99;49.69;101468.73;1691787;84;21034;-51
2021/12/29 04:03:16;;;;;;;15.75;11.60;;;;;;;4.00;49.65;101464.88;1694070;83;21593;-51
2021/12/29 04:05:43;;;;;;;20.00;13.13;;;;;;;4.02;49.53;101470.05;1693822;83;21490;-51
2021/12/29 04:08:09;;;;;;;18.27;13.40;;;;;;;4.03;49.54;101470.52;1691054;84;21058;-51
2021/12/29 04:10:37;;;;;;;15.60;12.25;;;;;;;4.05;49.56;101477.84;1690460;84;21045;-51
2021/12/29 04:13:03;;;;;;;17.90;12.78;;;;;;;4.07;49.62;101486.45;1687592;84;21085;-51
2021/12/29 04:15:31;;;;;;;17.32;12.20;;;;;;;4.07;49.58;101480.02;1696972;83;21049;-51
2021/12/29 04:17:58;;;;;;;19.02;11.70;;;;;;;4.07;49.36;101474.87;1692129;84;21650;-51
2021/12/29 04:23:17;;;;;;;15.25;11.97;;;;;;;4.10;49.20;101481.37;1692621;83;21126;-51
2021/12/29 04:25:48;;;;;;;18.57;12.20;;;;;;;4.12;49.19;101479.69;1694852;83;21601;-51
2021/12/29 04:28:16;;;;;;;19.27;12.95;;;;;;;4.12;49.11;101484.84;1690634;84;21017;-52
2021/12/29 04:30:42;;;;;;;15.75;12.07;;;;;;;4.13;49.01;101481.40;1693882;84;21070;-51
2021/12/29 04:33:09;;;;;;;20.57;14.10;;;;;;;4.13;49.15;101487.84;1698136;83;21053;-51
2021/12/29 04:35:36;;;;;;;19.37;13.25;;;;;;;4.14;49.14;101494.73;1693481;83;21561;-52
2021/12/29 04:38:02;;;;;;;20.50;13.90;;;;;;;4.13;49.26;101501.59;1689047;83;21546;-52
2021/12/29 04:40:29;;;;;;;20.62;13.72;;;;;;;4.16;49.24;101500.78;1692244;83;21509;-52
2021/12/29 04:42:56;;;;;;;16.85;12.85;;;;;;;4.17;49.16;101503.78;1692713;84;21010;-51
2021/12/29 04:45:23;;;;;;;22.73;12.93;;;;;;;4.19;49.03;101498.65;1695304;83;21042;-51
2021/12/29 04:47:50;;;;;;;16.32;12.30;;;;;;;4.19;49.09;101496.07;1694944;84;21067;-51
2021/12/29 04:52:46;;;;;;;17.70;12.20;;;;;;;4.18;48.85;101497.80;1701561;83;21077;-51
2021/12/29 04:55:13;;;;;;;17.37;12.40;;;;;;;4.20;48.89;101497.82;1688138;83;21038;-51
2021/12/29 04:57:40;;;;;;;15.08;11.40;;;;;;;4.20;48.86;101493.55;1696067;83;21044;-51
2021/12/29 05:00:08;;;;;;;18.17;12.55;;;;;;;4.21;48.76;101490.11;1702432;83;21065;-51
2021/12/29 05:02:35;;;;;;;15.50;11.65;;;;;;;4.20;48.58;101492.26;1708009;83;20998;-51
2021/12/29 05:05:17;;;;;;;15.45;12.00;;;;;;;4.19;48.65;101491.80;1681144;83;21076;-51
2021/12/29 05:10:17;;;;;;;14.05;10.43;;;;;;;4.20;48.72;101485.82;1681429;84;21065;-51
2021/12/29 05:12:43;;;;;;;15.18;11.12;;;;;;;4.20;48.75;101485.82;1663046;85;21547;-51
2021/12/29 05:15:10;;;;;;;15.38;9.95;;;;;;;4.21;48.35;101490.11;1647189;86;21111;-52
2021/12/29 05:17:38;;;;;;;13.28;9.70;;;;;;;4.19;48.05;101493.09;1644296;86;21065;-51
2021/12/29 05:20:06;;;;;;;16.55;10.68;;;;;;;4.16;48.11;101494.34;1639821;86;21078;-51
2021/12/29 05:22:34;;;;;;;14.43;9.50;;;;;;;4.15;47.99;101497.74;1630611;87;21090;-51
2021/12/29 05:25:00;;;;;;;13.95;9.45;;;;;;;4.13;47.86;101489.12;1627122;86;21090;-51
2021/12/29 05:27:27;;;;;;;13.35;9.63;;;;;;;4.06;47.76;101487.28;1641642;86;21054;-52
2021/12/29 05:29:54;;;;;;;12.07;9.33;;;;;;;3.98;47.84;101498.75;1653979;83;21048;-51
2021/12/29 05:32:21;;;;;;;12.50;9.40;;;;;;;3.94;47.86;101499.95;1694427;84;21063;-51
2021/12/29 05:34:47;;;;;;;14.58;10.08;;;;;;;3.92;47.74;101490.92;1691927;83;21523;-52
2021/12/29 05:37:14;;;;;;;15.48;9.75;;;;;;;3.92;47.87;101493.50;1690045;83;21499;-50
2021/12/29 05:39:40;;;;;;;15.10;9.70;;;;;;;3.91;47.85;101493.08;1693914;84;21534;-51
2021/12/29 05:42:07;;;;;;;14.20;9.48;;;;;;;3.92;47.89;101495.20;1680478;84;21545;-51
2021/12/29 05:44:34;;;;;;;14.15;10.18;;;;;;;3.92;47.68;101502.52;1696331;84;21035;-51
2021/12/29 05:47:01;;;;;;;11.75;9.38;;;;;;;3.93;47.74;101502.98;1692164;84;21106;-51
2021/12/29 05:49:27;;;;;;;13.20;10.18;;;;;;;3.94;47.56;101506.39;1699724;84;21034;-51
2021/12/29 05:51:54;;;;;;;15.00;9.85;;;;;;;3.96;47.74;101509.45;1693240;84;20988;-51
2021/12/29 05:54:20;;;;;;;17.10;10.93;;;;;;;4.01;47.89;101519.83;1688177;84;21065;-51
2021/12/29 05:56:47;;;;;;;14.58;11.53;;;;;;;4.02;48.01;101521.14;1693668;84;21042;-50
2021/12/29 05:59:13;;;;;;;12.73;9.60;;;;;;;4.03;47.71;101516.86;1690869;83;21049;-51
2021/12/29 06:01:42;;;;;;;14.83;9.75;;;;;;;4.01;47.40;101512.11;1693831;84;21030;-51
2021/12/29 06:04:09;;;;;;;14.25;10.72;;;;;;;3.98;47.23;101506.89;1691439;84;21621;-51
2021/12/29 06:06:36;;;;;;;11.73;9.15;;;;;;;3.89;47.24;101509.33;1690245;84;21055;-50
2021/12/29 06:09:04;;;;;;;13.80;10.08;;;;;;;3.86;47.32;101507.97;1691316;84;21059;-50
2021/12/29 06:11:30;;;;;;;12.73;9.65;;;;;;;3.84;47.26;101500.23;1687241;84;21519;-51
2021/12/29 06:13:57;;;;;;;15.32;10.98;;;;;;;3.86;47.49;101512.71;1689457;83;21522;-51
2021/12/29 06:16:24;;;;;;;18.25;12.23;;;;;;;3.89;47.72;101516.64;1746605;80;21473;-51
2021/12/29 06:18:50;;;;;;;15.95;11.28;;;;;;;3.95;47.91;101522.30;1761481;80;21533;-51
2021/12/29 06:21:17;;;;;;;14.20;11.15;;;;;;;3.99;47.97;101526.25;1751407;80;21589;-51
2021/12/29 06:23:45;;;;;;;17.32;11.97;;;;;;;4.03;47.78;101529.73;1769021;80;21490;-50
2021/12/29 06:26:11;;;;;;;16.05;10.80;;;;;;;4.06;47.60;101532.34;1753766;81;21495;-51
2021/12/29 06:28:38;;;;;;;14.50;11.28;;;;;;;4.07;47.64;101540.53;1746427;80;21443;-51
2021/12/29 06:31:05;;;;;;;14.63;10.95;;;;;;;4.10;47.57;101536.30;1760028;80;21673;-51
2021/12/29 06:33:31;;;;;;;19.87;12.18;;;;;;;4.12;47.52;101529.46;1757754;80;21491;-51
2021/12/29 06:35:58;;;;;;;19.30;12.85;;;;;;;4.16;47.64;101532.98;1754078;80;21022;-51
2021/12/29 06:38:24;;;;;;;16.07;12.25;;;;;;;4.18;47.63;101536.44;1753636;80;21527;-51
2021/12/29 06:40:51;;;;;;;15.55;11.18;;;;;;;4.23;47.56;101542.93;1753173;80;21089;-51
2021/12/29 06:43:17;;;;;;;13.10;9.95;;;;;;;4.24;47.32;101537.83;1749202;81;21045;-51
2021/12/29 06:45:44;;;;;;;14.53;9.65;;;;;;;4.19;47.18;101539.45;1754368;80;21029;-51
2021/12/29 06:48:11;;;;;;;12.73;9.78;;;;;;;4.17;47.21;101538.55;1758868;80;21196;-50
2021/12/29 06:50:37;;;;;;;10.48;8.18;;;;;;;4.15;46.98;101546.68;1760265;80;20982;-50
2021/12/29 06:53:04;;;;;;;11.18;8.83;;;;;;;4.15;46.94;101549.25;1762396;80;21069;-51
2021/12/29 06:55:30;;;;;;;15.32;10.48;;;;;;;4.15;47.12;101549.25;1755022;80;20998;-50
2021/12/29 06:57:57;;;;;;;11.73;9.75;;;;;;;4.17;47.23;101550.14;1751069;80;21101;-51
2021/12/29 07:00:23;;;;;;;14.73;9.75;;;;;;;4.21;47.24;101545.91;1746918;80;21048;-51
2021/12/29 07:02:50;;;;;;;13.45;9.58;;;;;;;4.23;47.31;101538.66;1769245;80;20999;-51
2021/12/29 07:05:16;;;;;;;13.22;9.60;;;;;;;4.27;47.54;101539.15;1758745;80;21089;-51
2021/12/29 07:07:46;;;;;;;16.73;10.38;;;;;;;4.29;47.28;101545.19;1763813;80;21463;-50
2021/12/29 07:10:12;;;;;;;14.55;10.82;;;;;;;4.31;47.05;101543.51;1744517;80;21057;-51
2021/12/29 07:12:38;;;;;;;13.38;10.38;;;;;;;4.33;47.10;101538.41;1752928;80;21026;-51
2021/12/29 07:15:06;;;;;;;16.50;11.55;;;;;;;4.34;46.86;101529.81;1758411;80;21014;-51
2021/12/29 07:17:33;;;;;;;12.88;10.10;;;;;;;4.33;46.85;101528.94;1760594;81;21538;-52
2021/12/29 07:19:59;;;;;;;13.93;10.15;;;;;;;4.33;46.66;101530.67;1761510;80;21525;-50
2021/12/29 07:22:26;;;;;;;13.10;10.10;;;;;;;4.24;46.42;101522.38;1763829;80;21015;-51
2021/12/29 07:24:52;;;;;;;13.40;9.60;;;;;;;4.12;46.49;101520.89;1758105;80;21590;-51
2021/12/29 07:27:18;;;;;;;13.75;10.68;;;;;;;4.01;46.71;101522.41;1753271;80;21529;-51
2021/12/29 07:29:45;;;;;;;15.53;10.80;;;;;;;3.92;46.87;101506.79;1756565;80;21045;-52
2021/12/29 07:32:12;;;;;;;13.18;10.48;;;;;;;3.88;47.09;101510.16;1750492;80;21054;-51
2021/12/29 07:34:38;;;;;;;14.10;11.03;;;;;;;3.88;47.39;101502.43;1756078;80;21007;-51
2021/12/29 07:37:05;;;;;;;14.85;10.40;;;;;;;3.91;47.46;101512.80;1753011;80;21030;-51
2021/12/29 07:39:31;;;;;;;15.53;11.73;;;;;;;3.95;47.38;101522.30;1759996;80;22718;-51
2021/12/29 07:41:58;;;;;;;14.55;11.00;;;;;;;4.02;47.61;101531.85;1755260;81;21029;-51
2021/12/29 07:44:27;;;;;;;14.83;11.00;;;;;;;4.06;47.25;101537.08;1766635;80;21030;-51
2021/12/29 07:46:57;;;;;;;12.90;10.15;;;;;;;4.10;47.25;101529.02;1761410;80;21057;-51
2021/12/29 07:49:22;;;;;;;15.65;10.58;;;;;;;4.16;47.13;101529.52;1758961;80;20982;-51
2021/12/29 07:51:49;;;;;;;13.55;9.78;;;;;;;4.19;46.98;101525.28;1755718;80;21135;-51
2021/12/29 07:54:16;;;;;;;13.50;10.08;;;;;;;4.25;47.17;101526.67;1763392;80;21042;-51
2021/12/29 07:56:43;;;;;;;16.87;10.88;;;;;;;4.29;47.03;101524.58;1756290;80;21069;-51
2021/12/29 07:59:10;;;;;;;15.40;10.32;;;;;;;4.32;46.81;101529.80;1757161;80;21064;-51
2021/12/29 08:01:39;;;;;;;14.38;10.25;;;;;;;4.33;46.79;101528.94;1772823;80;21033;-51
2021/12/29 08:04:06;;;;;;;15.23;11.20;;;;;;;4.37;46.65;101528.59;1768148;80;21514;-51
2021/12/29 08:06:32;;;;;;;14.28;11.35;;;;;;;4.32;46.53;101536.66;1762452;80;21446;-51
2021/12/29 08:08:59;;;;;;;15.75;11.78;;;;;;;4.32;46.80;101537.53;1777125;80;21485;-51
2021/12/29 08:11:25;;;;;;;14.25;10.88;;;;;;;4.36;46.93;101521.27;1766700;80;21470;-51
2021/12/29 08:13:52;;;;;;;14.75;11.12;;;;;;;4.41;46.82;101526.06;1775928;80;21093;-51
2021/12/29 08:16:19;;;;;;;14.33;11.25;;;;;;;4.43;46.72;101527.39;1766167;80;21493;-51
2021/12/29 08:18:45;;;;;;;17.02;10.90;;;;;;;4.45;46.55;101536.86;1758071;80;21566;-51
2021/12/29 08:21:12;;;;;;;14.68;11.60;;;;;;;4.49;46.64;101542.50;1762940;80;21471;-51
2021/12/29 08:23:38;;;;;;;16.75;12.03;;;;;;;4.52;46.93;101543.85;1755227;80;21401;-51
2021/12/29 08:26:05;;;;;;;15.08;11.55;;;;;;;4.55;46.64;101541.34;1744272;80;21470;-53
2021/12/29 08:28:31;;;;;;;13.55;11.12;;;;;;;4.57;46.55;101543.52;1762702;80;21581;-51
2021/12/29 08:30:58;;;;;;;14.68;11.55;;;;;;;4.53;46.12;101540.45;1759501;80;21520;-51
2021/12/29 08:33:25;;;;;;;14.03;11.40;;;;;;;4.48;46.25;101548.52;1754163;80;21548;-51
2021/12/29 08:35:51;;;;;;;22.05;15.45;;;;;;;4.50;46.68;101543.38;1745711;80;21073;-52
2021/12/29 08:38:18;;;;;;;17.23;13.05;;;;;;;4.52;47.01;101539.98;1764186;80;20966;-51
2021/12/29 08:40:46;;;;;;;16.73;11.93;;;;;;;4.58;46.76;101533.63;1758403;80;21070;-52
2021/12/29 08:43:14;;;;;;;14.68;11.30;;;;;;;4.61;46.51;101528.53;1754153;80;21471;-51
2021/12/29 08:45:42;;;;;;;15.65;10.80;;;;;;;4.64;46.25;101529.85;1754802;80;20995;-51
2021/12/29 08:48:10;;;;;;;13.45;10.45;;;;;;;4.69;46.06;101524.77;1754784;80;21509;-51
2021/12/29 08:50:37;;;;;;;13.22;10.45;;;;;;;4.71;45.89;101514.93;1753621;80;21013;-51
2021/12/29 08:53:05;;;;;;;16.45;10.75;;;;;;;4.72;45.92;101519.64;1750170;80;21034;-51
2021/12/29 08:55:33;;;;;;;13.28;10.63;;;;;;;4.69;45.83;101518.33;1766321;80;21533;-51
2021/12/29 08:57:59;;;;;;;13.25;10.60;;;;;;;4.68;46.02;101529.05;1750068;81;21049;-51
2021/12/29 09:00:26;;;;;;;14.75;10.32;;;;;;;4.68;45.91;101522.61;1760592;80;21038;-51
2021/12/29 09:02:53;;;;;;;14.58;11.57;;;;;;;4.63;45.63;101526.84;1760777;80;21074;-52
2021/12/29 09:05:20;;;;;;;13.40;10.30;;;;;;;4.58;45.83;101516.00;1779044;80;20986;-51
2021/12/29 09:07:48;;;;;;;15.20;10.93;;;;;;;4.58;46.04;101520.75;1763872;80;21519;-51
2021/12/29 09:10:16;;;;;;;13.35;10.43;;;;;;;4.58;45.67;101522.03;1756800;80;21459;-51
2021/12/29 09:12:47;;;;;;;13.28;10.18;;;;;;;4.57;45.92;101522.89;1759081;80;21006;-51
2021/12/29 09:15:14;;;;;;;15.63;10.60;;;;;;;4.59;45.79;101519.92;1754439;80;21002;-51
2021/12/29 09:17:42;;;;;;;14.30;10.63;;;;;;;4.56;45.54;101525.01;1756836;80;21026;-51
2021/12/29 09:22:41;;;;;;;12.25;9.65;;;;;;;4.58;46.06;101524.61;1713680;83;21145;-50
2021/12/29 09:25:08;;;;;;;14.98;10.85;;;;;;;4.61;45.77;101526.38;1719035;83;21480;-51
2021/12/29 09:27:35;;;;;;;14.83;11.45;;;;;;;4.61;45.71;101522.51;1721208;83;20976;-51
2021/12/29 09:30:02;;;;;;;13.85;9.83;;;;;;;4.66;46.30;101521.72;1712143;83;21118;-51
2021/12/29 09:32:31;;;;;;;14.50;10.43;;;;;;;4.73;46.42;101518.40;1711044;83;21552;-50
2021/12/29 09:34:59;;;;;;;13.60;9.75;;;;;;;4.75;45.94;101519.28;1710976;83;21016;-51
2021/12/29 09:37:28;;;;;;;14.10;11.30;;;;;;;4.78;46.07;101512.86;1721210;83;21064;-50
2021/12/29 09:39:55;;;;;;;21.05;13.58;;;;;;;4.85;46.13;101509.53;1718496;83;21044;-51
2021/12/29 09:42:22;;;;;;;22.77;14.55;;;;;;;4.92;46.21;101508.75;1723197;83;21057;-51
2021/12/29 09:44:50;;;;;;;26.33;18.37;;;;;;;4.98;46.05;101499.38;1710686;83;21586;-51
2021/12/29 09:47:17;;;;;;;20.23;13.68;;;;;;;5.04;45.56;101493.00;1718456;83;21013;-51
2021/12/29 09:49:44;;;;;;;16.82;11.75;;;;;;;5.06;45.51;101494.77;1714304;82;21010;-52
2021/12/29 09:52:11;;;;;;;12.95;10.25;;;;;;;5.06;45.42;101501.63;1712017;83;21044;-51
2021/12/29 09:54:38;;;;;;;16.05;10.98;;;;;;;5.02;45.45;101499.85;1719396;83;21110;-51
2021/12/29 09:57:05;;;;;;;14.43;10.30;;;;;;;5.01;45.63;101498.14;1719932;83;21095;-51
2021/12/29 09:59:31;;;;;;;14.07;10.68;;;;;;;5.04;45.80;101495.58;1713446;83;21119;-51
2021/12/29 10:01:58;;;;;;;14.47;10.65;;;;;;;5.07;45.80;101490.48;1707025;83;21044;-51
2021/12/29 10:04:25;;;;;;;15.35;11.55;;;;;;;5.01;45.11;101488.66;1716025;83;20962;-51
2021/12/29 10:06:52;;;;;;;13.80;10.00;;;;;;;4.87;45.22;101485.92;1722541;83;21040;-51
2021/12/29 10:09:19;;;;;;;13.53;10.78;;;;;;;4.77;45.17;101490.52;1692709;83;21090;-51
2021/12/29 10:11:46;;;;;;;14.98;11.65;;;;;;;4.68;45.55;101486.52;1716671;83;21088;-51
2021/12/29 10:14:15;;;;;;;17.15;11.60;;;;;;;4.65;45.97;101486.49;1714926;83;21030;-51
2021/12/29 10:16:44;;;;;;;14.87;11.05;;;;;;;4.58;45.75;101482.08;1708882;83;22856;-52
2021/12/29 10:21:46;;;;;;;15.78;11.20;;;;;;;4.56;46.28;101479.91;1713031;83;21050;-51
2021/12/29 10:24:15;;;;;;;14.05;10.75;;;;;;;4.61;46.28;101476.98;1646223;86;21099;-51
2021/12/29 10:26:45;;;;;;;14.65;11.40;;;;;;;4.68;46.14;101474.91;1700889;83;21094;-51
2021/12/29 10:29:18;;;;;;;18.32;12.23;;;;;;;4.68;45.87;101480.48;1651361;86;21039;-51
2021/12/29 10:31:58;;;;;;;14.53;11.48;;;;;;;4.57;45.78;101473.92;1693840;83;21128;-51
2021/12/29 10:34:26;;;;;;;15.70;11.68;;;;;;;4.52;46.14;101475.55;1698529;83;21065;-51
2021/12/29 10:36:57;;;;;;;16.93;12.28;;;;;;;4.51;45.91;101471.27;1703986;83;21601;-51
2021/12/29 10:39:34;;;;;;;15.07;11.50;;;;;;;4.46;45.86;101466.45;1646092;86;21538;-51
2021/12/29 10:42:08;;;;;;;15.75;12.33;;;;;;;4.45;46.14;101476.75;1564897;90;21163;-51
2021/12/29 10:44:44;;;;;;;14.87;11.53;;;;;;;4.41;46.13;101481.41;1605942;87;21895;-51
2021/12/29 10:47:23;;;;;;;15.35;11.08;;;;;;;4.38;46.08;101475.78;1609490;87;21050;-51
2021/12/29 10:50:07;;;;;;;16.25;12.15;;;;;;;4.32;46.19;101473.13;1598782;88;21315;-51
2021/12/29 10:52:43;;;;;;;16.73;11.20;;;;;;;4.32;46.50;101476.11;1603426;88;21550;-52
2021/12/29 10:55:17;;;;;;;17.32;10.70;;;;;;;4.36;46.78;101472.32;1618887;87;21581;-52
2021/12/29 10:57:47;;;;;;;16.50;12.05;;;;;;;4.43;46.57;101466.39;1606183;87;21177;-52
2021/12/29 11:00:18;;;;;;;14.25;10.82;;;;;;;4.51;46.61;101454.52;1610799;88;21072;-52
2021/12/29 11:02:45;;;;;;;14.78;10.78;;;;;;;4.57;46.37;101446.86;1609817;87;21067;-51
2021/12/29 11:05:12;;;;;;;16.32;10.70;;;;;;;4.61;46.22;101438.33;1614381;87;21082;-52
2021/12/29 11:07:39;;;;;;;15.78;12.10;;;;;;;4.66;46.32;101434.08;1634199;87;21081;-52
2021/12/29 11:10:17;;;;;;;16.67;12.07;;;;;;;4.74;46.29;101436.33;1600715;87;21049;-52
2021/12/29 11:12:53;;;;;;;16.95;11.38;;;;;;;4.81;46.44;101434.28;1607142;88;21586;-52
2021/12/29 11:15:32;;;;;;;15.13;12.55;;;;;;;4.90;46.36;101436.95;1608002;89;21061;-52
2021/12/29 11:18:07;;;;;;;13.80;11.40;;;;;;;4.94;46.10;101440.04;1591281;89;21112;-51
2021/12/29 11:20:34;;;;;;;15.93;11.85;;;;;;;5.02;46.14;101443.11;1597334;88;21563;-51
2021/12/29 11:23:15;;;;;;;16.37;11.68;;;;;;;5.07;46.05;101444.05;1601925;88;21087;-51
2021/12/29 11:25:43;;;;;;;12.80;10.60;;;;;;;5.11;45.95;101443.23;1603075;89;20978;-50
2021/12/29 11:28:29;;;;;;;17.77;11.75;;;;;;;5.14;45.91;101445.83;1609672;89;21054;-51
2021/12/29 11:30:59;;;;;;;14.45;10.70;;;;;;;5.14;45.56;101453.56;1604065;89;21053;-51
2021/12/29 11:33:30;;;;;;;14.28;11.05;;;;;;;5.08;45.29;101456.08;1607013;88;21125;-51
2021/12/29 11:35:57;;;;;;;12.78;10.63;;;;;;;5.04;45.40;101451.73;1571618;91;21065;-51